Time;durP1;ratioP1;P1;durP2;ratioP2;P2;SDS_P1;SDS_P2;PMS_P1;PMS_P2;Temp;Humidity;BMP_temperature;BMP_pressure;BME280_temperature;BME280_humidity;BME280_pressure;Samples;Min_cycle;Max_cycle;Signal;HPM_P1;HPM_P2
2022/03/13 00:00:55;;;;;;;27.63;18.83;;;7.80;34.00;;;;;;5136630;27;20827;-83
2022/03/13 00:03:23;;;;;;;28.33;19.17;;;7.80;34.10;;;;;;5136128;27;20939;-83
2022/03/13 00:05:51;;;;;;;31.50;22.03;;;7.80;34.10;;;;;;5136102;27;20462;-83
2022/03/13 00:08:25;;;;;;;25.40;18.90;;;7.70;35.10;;;;;;5135744;27;20872;-83
2022/03/13 00:10:57;;;;;;;25.47;18.77;;;7.80;36.40;;;;;;5136134;27;20932;-83
2022/03/13 00:13:25;;;;;;;30.47;18.83;;;7.70;37.40;;;;;;5135716;27;20444;-84
2022/03/13 00:15:54;;;;;;;26.73;20.37;;;7.60;38.80;;;;;;5136297;27;20459;-83
2022/03/13 00:18:21;;;;;;;26.23;19.23;;;7.60;38.60;;;;;;5135365;27;20444;-83
2022/03/13 00:20:48;;;;;;;31.90;19.03;;;7.60;38.80;;;;;;5136216;27;20456;-83
2022/03/13 00:23:16;;;;;;;24.20;17.30;;;7.50;39.40;;;;;;5135813;27;20446;-83
2022/03/13 00:25:43;;;;;;;26.20;18.07;;;7.50;39.70;;;;;;5136286;27;20460;-83
2022/03/13 00:28:10;;;;;;;27.70;17.77;;;7.40;39.60;;;;;;5135406;27;20467;-83
2022/03/13 00:30:37;;;;;;;26.73;19.37;;;7.40;38.80;;;;;;5111211;22;20528;-81
2022/03/13 00:33:06;;;;;;;23.30;15.97;;;7.40;38.00;;;;;;5078048;28;20446;-81
2022/03/13 00:35:33;;;;;;;27.10;17.80;;;7.40;37.60;;;;;;5078694;28;20450;-81
2022/03/13 00:37:59;;;;;;;25.20;17.60;;;7.40;36.10;;;;;;5078555;28;20446;-81
2022/03/13 00:40:26;;;;;;;24.03;16.23;;;7.30;34.90;;;;;;5093949;28;20466;-81
2022/03/13 00:42:53;;;;;;;22.20;15.70;;;7.40;34.00;;;;;;5098100;28;20448;-81
2022/03/13 00:45:20;;;;;;;24.80;18.43;;;7.40;35.30;;;;;;5098346;28;20446;-81
2022/03/13 00:47:47;;;;;;;24.97;18.07;;;7.30;37.10;;;;;;5098901;28;20469;-81
2022/03/13 00:50:15;;;;;;;26.37;18.57;;;7.10;37.70;;;;;;5098120;28;20480;-81
2022/03/13 00:52:42;;;;;;;28.00;20.03;;;7.00;38.40;;;;;;5098264;28;20442;-80
2022/03/13 00:55:10;;;;;;;25.27;16.77;;;6.90;39.40;;;;;;5097748;28;20516;-80
2022/03/13 00:57:37;;;;;;;25.53;19.00;;;6.80;40.40;;;;;;5098251;28;20442;-81
2022/03/13 01:00:05;;;;;;;26.60;18.90;;;6.80;41.00;;;;;;5097227;28;20653;-81
2022/03/13 01:02:32;;;;;;;25.27;18.23;;;6.70;41.20;;;;;;5098176;28;20458;-81
2022/03/13 01:04:59;;;;;;;21.90;16.13;;;6.60;41.30;;;;;;5098577;28;20445;-81
2022/03/13 01:07:27;;;;;;;26.50;17.57;;;6.60;41.80;;;;;;5097995;28;20470;-81
2022/03/13 01:09:53;;;;;;;26.13;18.90;;;6.50;41.80;;;;;;5097802;28;20467;-81
2022/03/13 01:12:20;;;;;;;31.47;17.83;;;6.50;41.40;;;;;;5097050;28;20479;-82
2022/03/13 01:14:47;;;;;;;24.97;18.03;;;6.30;41.70;;;;;;5097470;28;20464;-81
2022/03/13 01:17:14;;;;;;;24.67;17.00;;;6.30;41.40;;;;;;5098182;28;20449;-81
2022/03/13 01:19:40;;;;;;;24.13;15.90;;;6.20;41.60;;;;;;5098055;28;20777;-81
2022/03/13 01:22:07;;;;;;;27.63;17.47;;;6.10;39.80;;;;;;5097870;28;20446;-81
2022/03/13 01:24:43;;;;;;;23.83;16.97;;;6.10;39.10;;;;;;5097233;28;20461;-81
2022/03/13 01:27:11;;;;;;;25.50;15.83;;;5.90;39.20;;;;;;5096597;28;20449;-81
2022/03/13 01:29:38;;;;;;;25.30;16.73;;;5.90;41.30;;;;;;5097038;28;20488;-83
2022/03/13 01:32:07;;;;;;;24.13;16.10;;;5.70;41.10;;;;;;5097419;28;20808;-83
2022/03/13 01:34:44;;;;;;;24.83;15.67;;;5.60;41.10;;;;;;5097141;28;20449;-83
2022/03/13 01:37:29;;;;;;;30.73;17.03;;;5.50;42.30;;;;;;5097505;28;20513;-83
2022/03/13 01:39:58;;;;;;;24.47;16.57;;;5.50;42.90;;;;;;5097150;28;20473;-83
2022/03/13 01:42:25;;;;;;;27.97;17.17;;;5.30;43.80;;;;;;5097377;28;20457;-83
2022/03/13 01:44:52;;;;;;;27.70;17.67;;;5.20;44.30;;;;;;5096346;28;20961;-83
2022/03/13 01:47:19;;;;;;;24.20;15.63;;;5.20;45.00;;;;;;5096978;28;20452;-84
2022/03/13 01:49:47;;;;;;;24.80;17.37;;;5.20;45.30;;;;;;5096160;28;20470;-84
2022/03/13 01:52:14;;;;;;;28.57;16.80;;;5.00;45.20;;;;;;5096415;28;20449;-83
2022/03/13 01:54:44;;;;;;;24.63;18.20;;;5.00;45.60;;;;;;5096518;28;20457;-83
2022/03/13 01:57:17;;;;;;;29.93;17.37;;;4.90;45.80;;;;;;5096671;28;20456;-83
2022/03/13 01:59:44;;;;;;;26.40;17.77;;;4.80;45.90;;;;;;5095627;28;20473;-83
2022/03/13 02:02:10;;;;;;;24.43;18.27;;;4.80;45.90;;;;;;5095905;28;20499;-83
2022/03/13 02:04:37;;;;;;;27.27;17.60;;;4.70;45.80;;;;;;5095791;28;20833;-83
2022/03/13 02:07:04;;;;;;;24.00;16.47;;;4.60;46.00;;;;;;5095410;28;20453;-83
2022/03/13 02:09:31;;;;;;;24.20;16.90;;;4.60;45.90;;;;;;5095408;28;20478;-83
2022/03/13 02:11:58;;;;;;;27.03;17.57;;;4.50;45.80;;;;;;5095676;28;20460;-83
2022/03/13 02:14:26;;;;;;;25.20;17.17;;;4.40;46.20;;;;;;5096295;28;20449;-83
2022/03/13 02:16:53;;;;;;;26.20;16.03;;;4.40;46.70;;;;;;5095867;28;20496;-84
2022/03/13 02:19:21;;;;;;;27.13;17.30;;;4.30;47.10;;;;;;5095855;28;20475;-83
2022/03/13 02:21:51;;;;;;;25.50;17.20;;;4.20;47.70;;;;;;5095922;28;20454;-83
2022/03/13 02:24:24;;;;;;;29.47;17.70;;;4.10;48.40;;;;;;5095728;28;20458;-83
2022/03/13 02:27:01;;;;;;;25.83;17.97;;;4.00;48.40;;;;;;5095934;28;20450;-83
2022/03/13 02:29:29;;;;;;;29.60;19.30;;;3.80;49.30;;;;;;5095527;28;20484;-84
2022/03/13 02:31:56;;;;;;;28.00;17.87;;;3.80;51.00;;;;;;5095701;28;20456;-83
2022/03/13 02:34:24;;;;;;;29.43;19.67;;;3.70;51.60;;;;;;5095379;28;20445;-83
2022/03/13 02:37:02;;;;;;;25.00;17.90;;;3.70;51.80;;;;;;5095654;28;20457;-83
2022/03/13 02:39:35;;;;;;;27.63;18.20;;;3.70;51.50;;;;;;5095434;28;20461;-83
2022/03/13 02:42:04;;;;;;;24.67;16.80;;;3.70;49.30;;;;;;5095540;28;20949;-83
2022/03/13 02:44:31;;;;;;;22.30;15.50;;;3.70;48.10;;;;;;5095767;28;20525;-83
2022/03/13 02:47:01;;;;;;;36.40;16.67;;;3.70;46.90;;;;;;5094915;28;20445;-83
2022/03/13 02:49:30;;;;;;;23.17;15.50;;;3.70;46.20;;;;;;5094854;28;20485;-83
2022/03/13 02:52:01;;;;;;;23.20;15.87;;;3.80;45.40;;;;;;5095132;28;20488;-83
2022/03/13 02:54:28;;;;;;;22.63;16.23;;;3.80;44.50;;;;;;5095593;28;20457;-83
2022/03/13 02:56:57;;;;;;;27.93;14.73;;;3.90;42.70;;;;;;5095183;28;21139;-83
2022/03/13 02:59:23;;;;;;;20.07;14.37;;;4.00;42.40;;;;;;5095389;28;20473;-83
2022/03/13 03:01:50;;;;;;;28.13;17.30;;;3.90;43.30;;;;;;5094665;28;20449;-83
2022/03/13 03:04:18;;;;;;;24.87;17.30;;;3.60;45.60;;;;;;5095055;28;20454;-83
2022/03/13 03:06:59;;;;;;;25.90;16.60;;;3.50;47.90;;;;;;5094900;28;20952;-83
2022/03/13 03:09:28;;;;;;;21.40;15.13;;;3.60;47.70;;;;;;5094740;28;20501;-83
2022/03/13 03:11:58;;;;;;;25.30;15.43;;;3.70;45.80;;;;;;5095021;28;20454;-83
2022/03/13 03:14:25;;;;;;;20.73;14.53;;;3.70;43.80;;;;;;5095408;28;20449;-83
2022/03/13 03:16:54;;;;;;;26.23;15.40;;;3.70;42.50;;;;;;5095166;28;20464;-83
2022/03/13 03:19:21;;;;;;;24.60;16.07;;;3.80;43.80;;;;;;5099023;28;20466;-83
2022/03/13 03:21:48;;;;;;;25.90;15.30;;;3.80;44.00;;;;;;5099078;28;20816;-83
2022/03/13 03:24:18;;;;;;;24.50;15.67;;;3.80;42.40;;;;;;5099005;28;20953;-83
2022/03/13 03:26:44;;;;;;;22.30;14.50;;;3.90;41.90;;;;;;5099203;28;20450;-83
2022/03/13 03:29:13;;;;;;;22.27;14.47;;;3.90;41.60;;;;;;5100261;28;20484;-83
2022/03/13 03:31:42;;;;;;;22.30;14.80;;;3.90;41.20;;;;;;5098437;28;20446;-84
2022/03/13 03:34:11;;;;;;;20.27;13.20;;;3.90;40.00;;;;;;5098688;28;20449;-83
2022/03/13 03:36:41;;;;;;;22.33;14.87;;;3.90;39.60;;;;;;5101370;28;20453;-83
2022/03/13 03:39:08;;;;;;;21.83;15.43;;;4.00;39.60;;;;;;5102956;28;20458;-84
2022/03/13 03:41:35;;;;;;;20.00;13.30;;;4.10;38.20;;;;;;5100298;28;20833;-83
2022/03/13 03:44:02;;;;;;;22.33;12.70;;;4.20;37.60;;;;;;5097963;28;20502;-83
2022/03/13 03:46:30;;;;;;;25.73;14.63;;;4.30;36.10;;;;;;5098705;28;20452;-84
2022/03/13 03:48:56;;;;;;;20.43;11.97;;;4.50;30.90;;;;;;5097684;28;20504;-84
2022/03/13 03:51:23;;;;;;;19.13;12.73;;;4.70;28.70;;;;;;5100320;28;20453;-84
2022/03/13 03:53:50;;;;;;;18.47;12.30;;;5.00;28.50;;;;;;5098583;28;20453;-84
2022/03/13 03:56:17;;;;;;;20.27;13.03;;;4.90;30.30;;;;;;5115646;28;20450;-83
2022/03/13 03:58:43;;;;;;;22.00;14.00;;;5.00;30.00;;;;;;5112747;28;20441;-84
2022/03/13 04:01:10;;;;;;;19.60;13.70;;;5.10;30.90;;;;;;5103495;28;20457;-84
2022/03/13 04:03:38;;;;;;;25.40;12.77;;;5.20;29.60;;;;;;5100833;28;20790;-84
2022/03/13 04:06:05;;;;;;;25.40;14.90;;;5.30;28.50;;;;;;5079256;28;20880;-84
2022/03/13 04:08:33;;;;;;;23.07;14.13;;;5.30;28.30;;;;;;5079341;28;20474;-84
2022/03/13 04:11:01;;;;;;;20.33;12.67;;;5.40;27.00;;;;;;5099269;28;20465;-83
2022/03/13 04:13:28;;;;;;;19.03;10.63;;;5.50;25.90;;;;;;5100762;28;20449;-84
2022/03/13 04:15:55;;;;;;;21.27;11.97;;;5.60;22.40;;;;;;5100627;28;20508;-84
2022/03/13 04:18:22;;;;;;;20.93;12.80;;;5.80;20.80;;;;;;5101141;28;20441;-84
2022/03/13 04:20:50;;;;;;;20.57;13.70;;;5.90;20.20;;;;;;5099039;28;20480;-85
2022/03/13 04:23:17;;;;;;;21.27;11.13;;;5.90;20.00;;;;;;5099583;28;20528;-84
2022/03/13 04:25:44;;;;;;;19.30;11.20;;;6.00;18.40;;;;;;5099882;28;20458;-82
2022/03/13 04:28:12;;;;;;;17.00;12.40;;;6.20;18.00;;;;;;5097613;28;20837;-84
2022/03/13 04:30:39;;;;;;;18.53;12.87;;;6.30;17.40;;;;;;5099074;28;20481;-84
2022/03/13 04:33:07;;;;;;;21.20;11.97;;;6.20;17.30;;;;;;5098118;28;20446;-84
2022/03/13 04:35:33;;;;;;;19.83;11.43;;;6.30;16.80;;;;;;5098898;28;20446;-84
2022/03/13 04:38:02;;;;;;;18.53;12.20;;;6.30;15.80;;;;;;5099954;28;20957;-83
2022/03/13 04:40:28;;;;;;;29.00;18.80;;;6.30;18.10;;;;;;5100805;28;20564;-84
2022/03/13 04:42:55;;;;;;;17.90;12.80;;;6.30;18.60;;;;;;5101376;28;20472;-81
2022/03/13 04:45:22;;;;;;;16.53;12.47;;;6.20;19.10;;;;;;5098553;28;20453;-82
2022/03/13 04:47:49;;;;;;;17.67;11.60;;;6.10;19.30;;;;;;5100405;28;20452;-81
2022/03/13 04:50:16;;;;;;;20.27;12.17;;;6.10;17.90;;;;;;5098088;28;21039;-82
2022/03/13 04:52:43;;;;;;;20.03;12.03;;;6.10;16.90;;;;;;5100007;28;20442;-84
2022/03/13 04:55:11;;;;;;;16.30;10.83;;;6.10;16.30;;;;;;5100249;28;20450;-82
2022/03/13 04:57:38;;;;;;;19.97;10.03;;;6.10;14.30;;;;;;5099102;28;20449;-82
2022/03/13 05:00:06;;;;;;;18.30;12.93;;;6.20;14.30;;;;;;5100954;28;20465;-82
2022/03/13 05:02:33;;;;;;;18.63;12.37;;;6.10;15.60;;;;;;5097757;28;20454;-83
2022/03/13 05:05:00;;;;;;;21.27;11.93;;;6.00;16.30;;;;;;5096815;28;20454;-81
2022/03/13 05:07:28;;;;;;;25.67;17.73;;;6.00;16.50;;;;;;5098090;28;20495;-82
2022/03/13 05:09:55;;;;;;;19.43;11.40;;;6.00;16.00;;;;;;5097000;28;21017;-82
2022/03/13 05:12:29;;;;;;;14.10;9.73;;;6.00;14.80;;;;;;5098190;28;20450;-81
2022/03/13 05:14:56;;;;;;;17.57;10.83;;;6.00;13.50;;;;;;5098812;28;20987;-80
2022/03/13 05:17:23;;;;;;;17.00;11.40;;;6.10;13.70;;;;;;5097397;28;20453;-81
2022/03/13 05:19:49;;;;;;;17.00;11.47;;;6.10;13.10;;;;;;5097139;28;20461;-81
2022/03/13 05:22:16;;;;;;;22.73;10.57;;;6.20;11.60;;;;;;5097483;28;20977;-82
2022/03/13 05:24:43;;;;;;;18.60;11.50;;;6.30;11.70;;;;;;5097103;28;20453;-79
2022/03/13 05:27:10;;;;;;;17.23;11.87;;;6.40;10.90;;;;;;5098688;28;20875;-81
2022/03/13 05:29:38;;;;;;;19.63;11.53;;;6.30;10.80;;;;;;5096173;28;20503;-81
2022/03/13 05:32:06;;;;;;;15.37;10.40;;;6.40;10.50;;;;;;5097314;28;20453;-82
2022/03/13 05:34:33;;;;;;;16.70;10.37;;;6.40;9.60;;;;;;5096836;28;20946;-81
2022/03/13 05:36:59;;;;;;;19.23;11.10;;;6.50;9.70;;;;;;5098842;28;20441;-83
2022/03/13 05:39:26;;;;;;;19.67;11.03;;;6.50;9.70;;;;;;5099044;28;20485;-81
2022/03/13 05:41:53;;;;;;;15.30;10.13;;;6.50;9.10;;;;;;5095179;28;20453;-80
2022/03/13 05:44:21;;;;;;;17.40;10.97;;;6.50;10.90;;;;;;5095178;28;20445;-82
2022/03/13 05:46:49;;;;;;;18.37;10.30;;;6.50;10.90;;;;;;5096547;28;20452;-79
2022/03/13 05:49:15;;;;;;;16.57;10.70;;;6.40;10.90;;;;;;5094098;28;21071;-82
2022/03/13 05:51:42;;;;;;;17.00;10.00;;;6.50;10.90;;;;;;5096579;28;21066;-82
2022/03/13 05:54:10;;;;;;;16.20;10.97;;;6.40;10.90;;;;;;5096043;28;20454;-80
2022/03/13 05:56:37;;;;;;;20.10;11.13;;;6.40;10.90;;;;;;5096074;28;20449;-82
2022/03/13 05:59:04;;;;;;;17.33;11.80;;;6.40;12.40;;;;;;5096379;28;20998;-81
2022/03/13 06:01:30;;;;;;;20.77;11.60;;;6.40;13.20;;;;;;5096346;28;20996;-80
2022/03/13 06:03:59;;;;;;;18.43;11.90;;;6.30;13.30;;;;;;5096741;28;20456;-82
2022/03/13 06:06:26;;;;;;;19.13;11.40;;;6.30;13.70;;;;;;5097125;28;20460;-81
2022/03/13 06:08:53;;;;;;;17.70;11.33;;;6.20;14.40;;;;;;5095985;28;20473;-81
2022/03/13 06:11:20;;;;;;;17.53;11.40;;;6.30;13.00;;;;;;5096514;28;20450;-81
2022/03/13 06:13:47;;;;;;;19.43;10.27;;;6.30;11.80;;;;;;5096617;28;20460;-81
2022/03/13 06:16:14;;;;;;;19.73;11.40;;;6.40;11.90;;;;;;5097146;28;20472;-82
2022/03/13 06:18:41;;;;;;;14.73;10.30;;;6.30;10.20;;;;;;5095959;28;20933;-81
2022/03/13 06:21:09;;;;;;;19.07;10.53;;;6.40;9.50;;;;;;5096786;28;20486;-80
2022/03/13 06:23:36;;;;;;;20.00;12.13;;;6.40;8.50;;;;;;5097046;28;20457;-81
2022/03/13 06:26:04;;;;;;;17.17;10.67;;;6.50;8.60;;;;;;5095960;28;20449;-81
2022/03/13 06:28:31;;;;;;;14.80;9.53;;;6.50;8.80;;;;;;5095597;28;20485;-81
2022/03/13 06:31:18;;;;;;;18.23;11.03;;;6.50;8.20;;;;;;5112878;22;20477;-86
2022/03/13 06:34:51;;;;;;;15.50;11.10;;;6.60;8.10;;;;;;5100364;28;20475;-86
2022/03/13 06:40:48;;;;;;;16.13;11.50;;;6.60;7.50;;;;;;4961610;28;20481;-86
2022/03/13 06:43:18;;;;;;;19.03;11.50;;;6.60;7.00;;;;;;5079528;28;20465;-86
2022/03/13 06:45:48;;;;;;;17.07;11.27;;;6.60;7.50;;;;;;5080257;28;20537;-86
2022/03/13 06:48:21;;;;;;;21.30;10.80;;;6.70;7.90;;;;;;5079934;28;20512;-86
2022/03/13 06:50:50;;;;;;;17.37;11.37;;;6.70;7.30;;;;;;5079172;28;20508;-86
2022/03/13 06:53:20;;;;;;;18.77;11.83;;;6.80;6.40;;;;;;5079798;28;20533;-85
2022/03/13 06:55:52;;;;;;;15.40;9.93;;;6.90;6.00;;;;;;5078103;28;20450;-86
2022/03/13 06:58:19;;;;;;;19.60;11.03;;;6.90;5.80;;;;;;5079024;28;20451;-85
2022/03/13 07:00:55;;;;;;;18.17;10.47;;;7.00;5.20;;;;;;5078922;28;20466;-86
2022/03/13 07:03:22;;;;;;;16.27;10.73;;;7.00;4.60;;;;;;5058666;28;20530;-86
2022/03/13 07:05:49;;;;;;;15.43;10.20;;;7.20;5.40;;;;;;5066649;28;20450;-86
2022/03/13 07:08:16;;;;;;;16.47;11.10;;;7.10;4.70;;;;;;5078890;28;20518;-86
2022/03/13 07:10:43;;;;;;;20.43;10.70;;;7.20;5.90;;;;;;5079993;28;20482;-87
2022/03/13 07:13:11;;;;;;;16.87;10.53;;;7.20;3.90;;;;;;5080597;28;20450;-84
2022/03/13 07:15:39;;;;;;;16.30;9.87;;;7.20;4.00;;;;;;5078789;28;20833;-86
2022/03/13 07:18:06;;;;;;;18.97;11.03;;;7.30;4.20;;;;;;5080908;28;20493;-84
2022/03/13 07:20:33;;;;;;;23.07;12.00;;;7.20;3.90;;;;;;5080383;28;20466;-82
2022/03/13 07:23:00;;;;;;;15.00;11.10;;;7.30;4.40;;;;;;5079439;28;20450;-86
2022/03/13 07:25:26;;;;;;;17.07;10.57;;;7.30;4.00;;;;;;5080324;28;20461;-83
2022/03/13 07:27:53;;;;;;;17.67;10.50;;;7.30;3.90;;;;;;5080923;28;20458;-84
2022/03/13 07:30:21;;;;;;;18.93;9.87;;;7.30;3.80;;;;;;5078275;28;20489;-86
2022/03/13 07:32:48;;;;;;;18.30;11.10;;;7.40;4.70;;;;;;5074544;28;20458;-84
2022/03/13 07:35:15;;;;;;;14.67;9.47;;;7.60;3.90;;;;;;5074079;28;20454;-84
2022/03/13 07:37:42;;;;;;;16.60;10.67;;;7.70;2.40;;;;;;5054901;28;20826;-83
2022/03/13 07:40:10;;;;;;;19.87;11.80;;;7.80;4.00;;;;;;5054700;28;20479;-84
2022/03/13 07:42:37;;;;;;;19.20;12.43;;;8.00;3.20;;;;;;5075440;28;20446;-85
2022/03/13 07:45:03;;;;;;;18.77;10.47;;;7.90;1.40;;;;;;5075973;28;20523;-84
2022/03/13 07:47:32;;;;;;;19.17;11.43;;;8.00;2.70;;;;;;5072397;28;20454;-84
2022/03/13 07:49:58;;;;;;;21.00;11.70;;;8.10;2.60;;;;;;5073417;28;20847;-85
2022/03/13 07:52:25;;;;;;;22.77;14.53;;;8.20;2.70;;;;;;5075861;28;20824;-86
2022/03/13 07:54:52;;;;;;;19.00;12.43;;;8.30;2.20;;;;;;5076771;28;20455;-82
2022/03/13 07:57:19;;;;;;;18.23;11.13;;;8.60;2.70;;;;;;5076919;28;20450;-83
2022/03/13 07:59:47;;;;;;;18.80;11.70;;;8.70;1.00;;;;;;5076906;28;20467;-85
2022/03/13 08:02:14;;;;;;;17.93;11.07;;;8.90;1.00;;;;;;5077055;28;20457;-85
2022/03/13 08:04:42;;;;;;;16.30;11.07;;;9.00;1.00;;;;;;5081863;28;20454;-85
2022/03/13 08:07:09;;;;;;;17.43;10.30;;;9.10;1.00;;;;;;5083863;28;20447;-84
2022/03/13 08:09:36;;;;;;;16.40;11.17;;;9.20;1.00;;;;;;5084404;28;20478;-84
2022/03/13 08:12:03;;;;;;;18.80;11.87;;;9.20;1.00;;;;;;5085765;28;20450;-84
2022/03/13 08:14:30;;;;;;;18.40;11.80;;;9.10;1.00;;;;;;5084667;28;20480;-84
2022/03/13 08:16:56;;;;;;;18.63;10.43;;;9.00;1.00;;;;;;5083124;28;20216;-85
2022/03/13 08:19:23;;;;;;;17.20;11.23;;;9.00;1.00;;;;;;5084282;28;20985;-85
2022/03/13 08:21:51;;;;;;;18.33;11.60;;;9.10;1.00;;;;;;5083302;28;20971;-85
2022/03/13 08:24:18;;;;;;;19.20;12.20;;;9.10;1.00;;;;;;5080094;28;20633;-86
2022/03/13 08:26:45;;;;;;;17.00;11.50;;;9.30;1.00;;;;;;5079638;28;20969;-85
2022/03/13 08:29:13;;;;;;;17.23;11.00;;;9.30;1.00;;;;;;5082076;28;20455;-84
2022/03/13 08:31:40;;;;;;;17.30;11.33;;;9.50;1.00;;;;;;5063176;28;20447;-84
2022/03/13 08:34:08;;;;;;;17.13;11.70;;;9.70;1.00;;;;;;5065265;28;20457;-85
2022/03/13 08:36:34;;;;;;;19.33;10.80;;;9.80;1.00;;;;;;5075905;28;20939;-84
2022/03/13 08:39:03;;;;;;;21.00;13.10;;;10.10;1.00;;;;;;5077930;28;20451;-84
2022/03/13 08:41:29;;;;;;;16.43;10.70;;;10.20;1.00;;;;;;5056825;28;20466;-84
2022/03/13 08:43:56;;;;;;;18.30;11.53;;;10.20;1.00;;;;;;5074839;28;20451;-80
2022/03/13 08:46:24;;;;;;;18.00;11.60;;;10.30;1.00;;;;;;5074327;28;20460;-84
2022/03/13 08:48:50;;;;;;;19.33;11.90;;;10.40;1.00;;;;;;5073591;28;20848;-83
2022/03/13 08:51:19;;;;;;;17.87;10.33;;;10.50;1.00;;;;;;5074298;28;20486;-83
2022/03/13 08:53:46;;;;;;;15.43;11.03;;;10.40;1.00;;;;;;5074289;28;20450;-83
2022/03/13 08:56:15;;;;;;;20.57;11.40;;;10.30;1.00;;;;;;5073942;28;20450;-83
2022/03/13 08:58:42;;;;;;;15.33;11.00;;;10.10;1.00;;;;;;5073967;28;20501;-83
2022/03/13 09:01:08;;;;;;;19.40;11.10;;;10.00;1.00;;;;;;5073780;28;20466;-83
2022/03/13 09:03:36;;;;;;;18.50;11.20;;;9.90;1.00;;;;;;5074374;28;20451;-83
2022/03/13 09:06:03;;;;;;;16.60;11.40;;;9.90;1.00;;;;;;5073776;28;20446;-84
2022/03/13 09:08:29;;;;;;;16.07;11.17;;;10.00;1.00;;;;;;5073972;28;20458;-83
2022/03/13 09:10:56;;;;;;;20.27;11.17;;;10.10;1.00;;;;;;5073701;28;20485;-83
2022/03/13 09:13:24;;;;;;;22.03;12.30;;;10.30;1.00;;;;;;5075660;28;20462;-83
2022/03/13 09:15:51;;;;;;;19.97;12.17;;;10.40;1.00;;;;;;5075557;28;20962;-83
2022/03/13 09:18:18;;;;;;;16.97;11.47;;;10.20;1.00;;;;;;5073673;28;20442;-83
2022/03/13 09:20:45;;;;;;;20.70;12.23;;;10.20;1.00;;;;;;5074007;28;20467;-83
2022/03/13 09:23:11;;;;;;;16.97;10.27;;;10.40;1.00;;;;;;5073870;28;20959;-84
2022/03/13 09:25:38;;;;;;;17.27;11.87;;;10.60;1.00;;;;;;5073263;28;20450;-84
2022/03/13 09:28:06;;;;;;;19.53;12.03;;;10.70;1.00;;;;;;5072287;28;20458;-82
2022/03/13 09:30:34;;;;;;;17.80;11.43;;;10.60;1.00;;;;;;5072960;28;20490;-84
2022/03/13 09:33:01;;;;;;;19.20;12.90;;;10.60;1.00;;;;;;5073284;28;20488;-84
2022/03/13 09:35:28;;;;;;;15.77;11.00;;;10.70;1.00;;;;;;5073485;28;20458;-83
2022/03/13 09:37:55;;;;;;;21.83;12.27;;;11.00;1.00;;;;;;5072863;28;20478;-83
2022/03/13 09:40:22;;;;;;;18.10;12.43;;;11.50;1.00;;;;;;5072951;28;20470;-83
2022/03/13 09:42:49;;;;;;;17.30;11.83;;;12.10;1.00;;;;;;5073125;28;20458;-83
2022/03/13 09:45:17;;;;;;;17.13;12.47;;;12.60;1.00;;;;;;5072515;28;20980;-83
2022/03/13 09:47:45;;;;;;;17.50;12.10;;;12.90;1.00;;;;;;5073522;28;20451;-83
2022/03/13 09:50:12;;;;;;;15.67;11.27;;;13.40;1.00;;;;;;5072950;28;20860;-83
2022/03/13 09:52:40;;;;;;;19.10;12.30;;;13.30;1.00;;;;;;5073202;28;20945;-83
2022/03/13 09:55:09;;;;;;;21.67;13.20;;;13.40;1.00;;;;;;5072587;28;20516;-84
2022/03/13 09:57:36;;;;;;;18.50;12.83;;;13.60;1.00;;;;;;5072860;28;20447;-84
2022/03/13 10:00:07;;;;;;;17.33;12.70;;;13.90;1.00;;;;;;5075161;28;20495;-82
2022/03/13 10:02:35;;;;;;;17.40;12.60;;;14.20;1.00;;;;;;5073344;28;20807;-84
2022/03/13 10:05:08;;;;;;;17.50;12.10;;;14.10;1.00;;;;;;5072678;28;20511;-84
2022/03/13 10:07:52;;;;;;;20.33;13.73;;;14.40;1.00;;;;;;5072757;28;20541;-85
2022/03/13 10:10:19;;;;;;;18.73;12.63;;;14.80;1.00;;;;;;5071810;28;20511;-84
2022/03/13 10:12:47;;;;;;;20.73;12.43;;;14.70;1.00;;;;;;5073377;28;20451;-84
2022/03/13 10:15:14;;;;;;;16.50;12.70;;;14.80;1.00;;;;;;5075404;28;20831;-84
2022/03/13 10:17:42;;;;;;;15.70;12.87;;;15.10;1.00;;;;;;5072362;28;20960;-84
2022/03/13 10:20:15;;;;;;;16.77;11.70;;;15.40;1.00;;;;;;5072447;28;20469;-84
2022/03/13 10:22:43;;;;;;;18.27;13.57;;;15.80;1.00;;;;;;5072031;28;20452;-84
2022/03/13 10:25:13;;;;;;;19.50;13.13;;;15.60;1.00;;;;;;5062238;28;20447;-83
2022/03/13 10:27:40;;;;;;;20.37;13.70;;;16.10;1.00;;;;;;5072957;28;20547;-83
2022/03/13 10:30:08;;;;;;;19.33;13.27;;;16.00;1.00;;;;;;5072102;28;20479;-82
2022/03/13 10:32:36;;;;;;;17.87;13.90;;;15.80;1.00;;;;;;5074499;28;20459;-82
2022/03/13 10:35:03;;;;;;;20.40;13.87;;;16.30;1.00;;;;;;5073623;28;20799;-83
2022/03/13 10:37:37;;;;;;;18.57;13.07;;;16.40;1.00;;;;;;5073796;28;20449;-82
2022/03/13 10:40:15;;;;;;;20.03;13.07;;;16.30;1.00;;;;;;5073319;28;20986;-82
2022/03/13 10:42:43;;;;;;;20.00;15.57;;;16.60;1.00;;;;;;5073429;28;20451;-82
2022/03/13 10:45:31;;;;;;;22.13;15.03;;;16.40;1.00;;;;;;5075823;28;20451;-82
2022/03/13 10:48:18;;;;;;;17.73;14.57;;;16.50;1.00;;;;;;5073588;28;20453;-79
2022/03/13 10:50:45;;;;;;;18.00;14.23;;;17.10;1.00;;;;;;5053569;28;20218;-82
2022/03/13 10:53:13;;;;;;;15.17;13.57;;;17.10;1.00;;;;;;5054727;28;20454;-82
2022/03/13 10:55:41;;;;;;;20.93;15.20;;;17.30;1.00;;;;;;5072495;28;20946;-82
2022/03/13 10:58:08;;;;;;;22.80;15.20;;;17.90;1.00;;;;;;5073369;28;20472;-81
2022/03/13 11:00:38;;;;;;;18.13;13.50;;;17.60;1.00;;;;;;5074959;28;20466;-84
2022/03/13 11:03:17;;;;;;;21.23;14.17;;;18.00;1.00;;;;;;5073500;28;20975;-82
2022/03/13 11:05:44;;;;;;;19.67;14.80;;;17.80;1.00;;;;;;5054755;28;20458;-83
2022/03/13 11:08:10;;;;;;;19.23;13.87;;;18.20;1.00;;;;;;5052756;28;20463;-83
2022/03/13 11:10:39;;;;;;;18.63;14.67;;;18.50;1.00;;;;;;5072736;28;20993;-82
2022/03/13 11:13:06;;;;;;;20.37;15.10;;;18.60;1.00;;;;;;5073271;28;20452;-82
2022/03/13 11:15:35;;;;;;;18.53;16.00;;;18.90;1.00;;;;;;5072026;28;20954;-82
2022/03/13 11:18:03;;;;;;;22.40;15.30;;;19.00;1.00;;;;;;5073078;28;20555;-83
2022/03/13 11:20:31;;;;;;;21.20;14.93;;;19.20;1.00;;;;;;5071389;28;20466;-83
2022/03/13 11:22:57;;;;;;;19.00;14.80;;;19.10;1.00;;;;;;5072756;28;20459;-83
2022/03/13 11:25:24;;;;;;;19.50;14.23;;;19.20;1.00;;;;;;5072647;28;20466;-83
2022/03/13 11:27:55;;;;;;;19.67;14.50;;;19.40;1.00;;;;;;5073855;28;20456;-82
2022/03/13 11:30:32;;;;;;;22.80;15.10;;;19.40;1.00;;;;;;5071925;28;20489;-82
2022/03/13 11:33:00;;;;;;;21.60;14.20;;;19.90;1.00;;;;;;5072488;28;20971;-82
2022/03/13 11:35:30;;;;;;;21.30;15.07;;;20.30;1.00;;;;;;5072563;28;20512;-83
2022/03/13 11:38:21;;;;;;;20.07;15.90;;;20.10;1.00;;;;;;5071715;28;20456;-82
2022/03/13 11:40:48;;;;;;;23.80;16.70;;;19.90;1.00;;;;;;5075776;28;20468;-83
2022/03/13 11:43:18;;;;;;;20.43;16.90;;;19.60;1.00;;;;;;5057618;28;20979;-82
2022/03/13 11:45:50;;;;;;;21.33;17.17;;;19.80;1.00;;;;;;5076160;28;20449;-82
2022/03/13 11:48:41;;;;;;;21.10;17.27;;;20.40;1.00;;;;;;5074565;28;20456;-83
2022/03/13 11:51:08;;;;;;;20.40;15.57;;;20.20;1.00;;;;;;5075125;28;20545;-83
2022/03/13 11:53:46;;;;;;;21.97;16.50;;;20.40;1.00;;;;;;5075297;28;20453;-83
2022/03/13 11:56:27;;;;;;;20.50;17.17;;;20.80;1.00;;;;;;5075991;28;20473;-83
2022/03/13 11:58:57;;;;;;;21.97;15.93;;;20.90;1.00;;;;;;5076359;28;20452;-84
2022/03/13 12:01:35;;;;;;;19.73;16.63;;;20.70;1.00;;;;;;5077775;28;20442;-83
2022/03/13 12:04:27;;;;;;;21.63;17.03;;;20.70;1.00;;;;;;5077115;28;20453;-83
2022/03/13 12:06:56;;;;;;;24.10;15.70;;;21.00;1.00;;;;;;5060620;28;20508;-83
2022/03/13 12:09:30;;;;;;;19.87;14.77;;;20.90;1.00;;;;;;5076179;28;20497;-83
2022/03/13 12:12:06;;;;;;;18.20;14.07;;;20.80;1.00;;;;;;5075398;28;20481;-82
2022/03/13 12:14:54;;;;;;;19.80;15.87;;;20.80;1.00;;;;;;5075832;28;20557;-83
2022/03/13 12:17:33;;;;;;;20.07;15.53;;;20.90;1.00;;;;;;5077106;28;20896;-82
2022/03/13 12:20:02;;;;;;;20.87;17.17;;;20.90;1.00;;;;;;5076447;28;20466;-83
2022/03/13 12:22:31;;;;;;;18.87;14.50;;;21.40;1.00;;;;;;5075476;28;20817;-82
2022/03/13 12:25:00;;;;;;;21.90;15.20;;;21.20;1.00;;;;;;5075361;28;20514;-82
2022/03/13 12:27:27;;;;;;;19.87;15.93;;;21.10;1.00;;;;;;5075559;28;20575;-82
2022/03/13 12:29:57;;;;;;;24.13;15.43;;;20.90;1.00;;;;;;5114664;22;21650;-80
2022/03/13 12:32:29;;;;;;;27.50;18.87;;;20.60;1.00;;;;;;5043817;28;20558;-81
2022/03/13 12:34:57;;;;;;;24.00;14.97;;;20.80;1.00;;;;;;5037505;28;20437;-81
2022/03/13 12:37:26;;;;;;;21.60;16.30;;;20.80;1.00;;;;;;5038179;28;20519;-81
2022/03/13 12:39:55;;;;;;;17.77;15.17;;;20.90;1.00;;;;;;5038810;28;20484;-81
2022/03/13 12:42:24;;;;;;;20.07;15.43;;;20.70;1.00;;;;;;5050147;28;21096;-81
2022/03/13 12:45:10;;;;;;;21.00;15.07;;;20.50;1.00;;;;;;5058407;28;20518;-82
2022/03/13 12:47:38;;;;;;;22.00;16.10;;;20.80;1.00;;;;;;5060152;28;20489;-81
2022/03/13 12:50:10;;;;;;;20.37;15.67;;;20.80;1.00;;;;;;5056922;28;20478;-81